Antelope, MT

9:10 AM MDT on October 21, 2014 (GMT -0600)
Sloulin International | Change Station
CLOSE
Current Station
Airport
Location: Williston,
Elevation: 1906 ft
Nearby Weather Stations

Elev 1906 ft 48.17 °N, 103.64 °W | Updated 18 minutes ago

Clear
Clear
51 °F
Feels Like 51 °F
N
0
Wind Variable Wind from North

Today
High -- | Low -- °F
--% Chance of Precip.
Yesterday
High -- | Low -- °F
Precip. -- in
7:27 AM 5:56 PM
Waning Crescent, 5% visible
Pressure 29.75 in
Visibility 10.0 miles
Clouds Clear
Dew Point 39 °F
Humidity 63%
Rainfall 0.00 in
Snow Depth Not available.
UV 1 out of 12
Pollen 1.90 out of 12
Air Quality Not available.
Flu Activity No Activity
METAR KISN 211452Z AUTO 00000KT 10SM CLR 11/04 A2974 RMK AO2 SLP073 T01060039 58008

More Conditions Fewer Conditions

Pressure 29.75 in
Visibility 10.0 miles
Clouds Clear
Dew Point 39 °F
Humidity 63%
Rainfall 0.00 in
Snow Depth Not available.
UV 1 out of 12
Pollen 1.90 out of 12
Air Quality Not available.
Flu Activity No Activity
METAR KISN 211452Z AUTO 00000KT 10SM CLR 11/04 A2974 RMK AO2 SLP073 T01060039 58008

More Conditions Fewer Conditions

10-Day Weather Forecast

Almanac

Astronomy

Oct. 21, 2014 Rise Set
Actual Time 7:27 AM MDT 5:56 PM MDT
Civil Twilight 6:55 AM MDT 6:28 PM MDT
Nautical Twilight 6:18 AM MDT 7:05 PM MDT
Astronomical Twilight 5:42 AM MDT 7:41 PM MDT
Moon 5:03 AM MDT 5:00 PM MDT
Length of Visible Light 11h 33m
Length of Day
10h 29m
Tomorrow will be 3m 23s shorter.
Waning Crescent, 5% of the Moon is Illuminated
Today
Waning Crescent
Oct 23
New
Oct 30
First Quarter
Nov 6
Full
Nov 14
Last Quarter

Today's Extremes

State Highs State Lows

Community

WunderPhotos

Upload Photos

1,763,684 photos uploaded!

WunderBlogs® & News

By Dr. Jeff Masters
Director of Meteorology, Weather Underground
By Kari Strenfel
Meteorologist, Weather Underground
By Christopher C. Burt
Weather Historian, Weather Underground
October 21, 2014
October 21, 2014
October 21, 2014

Nearby

Snow Depth

Station Depth Elevation
Crystal Lake 1 in 6050 ft
Daisy Peak 0 in 7600 ft
Spur Park 0 in 8100 ft
Deadman Creek 0 in 6450 ft
Onion Park 0 in 7410 ft

Earthquake Activity

City Distance Mag. Time & Date
No recent earthquake activity has been reported nearby.
Minimum magnitude displayed is 2.5.

Coastal Water Temperatures

Place Temperature
No Stations Reporting

Nearby Weather Stations